createdAt,value
2018-09-19T00:02:14.949Z,101311.84
2018-09-19T00:04:43.504Z,101306.58
2018-09-19T00:07:12.132Z,101313.28
2018-09-19T00:09:40.650Z,101320.27
2018-09-19T00:12:09.203Z,101323.51
2018-09-19T00:14:37.749Z,101327.81
2018-09-19T00:17:06.347Z,101330.81
2018-09-19T00:19:34.931Z,101327.86
2018-09-19T00:22:03.466Z,101336.09
2018-09-19T00:24:32.063Z,101339.87
2018-09-19T00:27:00.681Z,101341.09
2018-09-19T00:29:29.197Z,101336.86
2018-09-19T00:31:57.746Z,101340.84
2018-09-19T00:34:26.291Z,101335.29
2018-09-19T00:36:54.928Z,101335.36
2018-09-19T00:39:23.464Z,101337.45
2018-09-19T00:41:52.104Z,101338.71
2018-09-19T00:44:20.719Z,101334.28
2018-09-19T00:46:49.238Z,101335.13
2018-09-19T00:49:17.791Z,101342.35
2018-09-19T00:51:46.399Z,101338.51
2018-09-19T00:54:14.972Z,101343.64
2018-09-19T00:56:43.535Z,101348.91
2018-09-19T00:59:12.110Z,101348.58
2018-09-19T01:01:40.640Z,101352.35
2018-09-19T01:04:09.428Z,101354.95
2018-09-19T01:06:37.911Z,101350.85
2018-09-19T01:09:08.000Z,101354.95
2018-09-19T01:11:38.636Z,101359.66
2018-09-19T01:14:07.151Z,101358.81
2018-09-19T01:16:35.640Z,101360.90
2018-09-19T01:19:04.171Z,101367.23
2018-09-19T01:21:32.759Z,101365.67
2018-09-19T01:24:01.288Z,101367.96
2018-09-19T01:26:29.767Z,101377.11
2018-09-19T01:28:58.292Z,101372.83
2018-09-19T01:31:26.800Z,101376.00
2018-09-19T01:33:55.331Z,101371.22
2018-09-19T01:36:23.916Z,101385.73
2018-09-19T01:38:52.460Z,101383.71
2018-09-19T01:41:21.045Z,101389.88
2018-09-19T01:43:49.552Z,101389.97
2018-09-19T01:46:18.080Z,101390.02
2018-09-19T01:48:46.575Z,101390.22
2018-09-19T01:51:15.092Z,101385.48
2018-09-19T01:53:43.583Z,101384.28
2018-09-19T01:56:12.045Z,101389.99
2018-09-19T01:58:40.576Z,101386.28
2018-09-19T02:01:09.017Z,101389.83
2018-09-19T02:03:37.496Z,101395.25
2018-09-19T02:06:06.385Z,101401.16
2018-09-19T02:08:35.017Z,101410.74
2018-09-19T02:11:03.513Z,101407.88
2018-09-19T02:13:32.023Z,101409.91
2018-09-19T02:16:00.529Z,101408.61
2018-09-19T02:18:28.997Z,101411.70
2018-09-19T02:20:57.501Z,101413.23
2018-09-19T02:23:25.984Z,101415.08
2018-09-19T02:25:54.514Z,101414.21
2018-09-19T02:28:23.159Z,101414.51
2018-09-19T02:30:51.648Z,101423.09
2018-09-19T02:33:20.104Z,101429.09
2018-09-19T02:35:48.576Z,101425.89
2018-09-19T02:38:17.077Z,101422.63
2018-09-19T02:40:45.843Z,101423.19
2018-09-19T02:43:14.444Z,101428.61
2018-09-19T02:45:42.911Z,101431.70
2018-09-19T02:48:11.438Z,101432.16
2018-09-19T02:50:40.061Z,101434.76
2018-09-19T02:53:08.506Z,101430.81
2018-09-19T02:55:36.977Z,101424.89
2018-09-19T02:58:05.505Z,101423.48
2018-09-19T03:00:33.969Z,101427.34
2018-09-19T03:03:02.543Z,101422.33
2018-09-19T03:05:30.989Z,101427.39
2018-09-19T03:07:59.487Z,101426.28
2018-09-19T03:10:27.968Z,101428.39
2018-09-19T03:12:56.539Z,101430.70
2018-09-19T03:15:25.052Z,101432.16
2018-09-19T03:17:53.503Z,101429.23
2018-09-19T03:20:22.009Z,101436.51
2018-09-19T03:22:51.575Z,101442.76
2018-09-19T03:25:20.144Z,101445.09
2018-09-19T03:27:48.656Z,101446.55
2018-09-19T03:30:17.160Z,101453.02
2018-09-19T03:32:45.662Z,101458.53
2018-09-19T03:35:14.163Z,101440.32
2018-09-19T03:37:42.647Z,101436.84
2018-09-19T03:40:11.131Z,101439.89
2018-09-19T03:42:39.713Z,101435.16
2018-09-19T03:45:08.208Z,101443.22
2018-09-19T03:47:36.737Z,101447.56
2018-09-19T03:50:05.283Z,101443.87
2018-09-19T03:52:33.768Z,101449.16
2018-09-19T03:55:02.284Z,101446.11
2018-09-19T03:57:30.743Z,101444.67
2018-09-19T03:59:59.634Z,101444.08
2018-09-19T04:02:28.095Z,101441.67
2018-09-19T04:04:56.565Z,101440.34
2018-09-19T04:07:25.068Z,101438.75
2018-09-19T04:09:53.542Z,101446.11
2018-09-19T04:12:23.224Z,101453.98
2018-09-19T04:14:51.686Z,101456.15
2018-09-19T04:17:21.677Z,101452.34
2018-09-19T04:19:50.285Z,101462.73
2018-09-19T04:22:18.907Z,101466.63
2018-09-19T04:24:47.656Z,101466.84
2018-09-19T04:27:16.139Z,101467.50
2018-09-19T04:29:44.607Z,101459.20
2018-09-19T04:32:13.351Z,101469.84
2018-09-19T04:34:41.811Z,101470.77
2018-09-19T04:37:10.303Z,101472.42
2018-09-19T04:39:38.804Z,101469.84
2018-09-19T04:42:07.501Z,101471.97
2018-09-19T04:44:36.001Z,101478.67
2018-09-19T04:47:04.557Z,101475.91
2018-09-19T04:49:33.006Z,101478.20
2018-09-19T04:52:01.469Z,101474.89
2018-09-19T04:54:30.001Z,101472.67
2018-09-19T04:56:58.482Z,101474.71
2018-09-19T04:59:26.960Z,101477.95
2018-09-19T05:01:55.437Z,101482.37
2018-09-19T05:04:23.882Z,101476.12
2018-09-19T05:06:52.493Z,101476.63
2018-09-19T05:09:21.514Z,101474.34
2018-09-19T05:11:50.104Z,101478.46
2018-09-19T05:14:18.559Z,101477.09
2018-09-19T05:16:47.043Z,101462.88
2018-09-19T05:19:15.617Z,101465.80
2018-09-19T05:21:44.104Z,101468.44
2018-09-19T05:24:12.588Z,101469.73
2018-09-19T05:26:41.137Z,101472.55
2018-09-19T05:29:09.619Z,101476.06
2018-09-19T05:31:38.148Z,101482.48
2018-09-19T05:34:06.593Z,101482.25
2018-09-19T05:36:35.056Z,101483.36
2018-09-19T05:39:04.360Z,101479.67
2018-09-19T05:41:32.828Z,101478.83
2018-09-19T05:44:01.320Z,101482.88
2018-09-19T05:46:29.820Z,101480.42
2018-09-19T05:48:58.283Z,101484.89
2018-09-19T05:51:26.762Z,101483.54
2018-09-19T05:53:55.227Z,101482.30
2018-09-19T05:56:24.023Z,101484.63
2018-09-19T05:58:52.684Z,101484.58
2018-09-19T06:01:21.166Z,101484.56
2018-09-19T06:03:49.767Z,101486.44
2018-09-19T06:06:18.494Z,101489.30
2018-09-19T06:08:47.089Z,101485.60
2018-09-19T06:11:15.594Z,101495.39
2018-09-19T06:13:44.141Z,101496.45
2018-09-19T06:16:12.629Z,101501.78
2018-09-19T06:18:41.097Z,101493.48
2018-09-19T06:21:09.555Z,101494.05
2018-09-19T06:23:38.033Z,101493.45
2018-09-19T06:26:06.539Z,101492.83
2018-09-19T06:28:35.080Z,101492.27
2018-09-19T06:31:03.581Z,101486.75
2018-09-19T06:33:32.129Z,101492.33
2018-09-19T06:36:00.614Z,101495.13
2018-09-19T06:38:29.135Z,101498.17
2018-09-19T06:40:57.722Z,101502.90
2018-09-19T06:43:26.096Z,101503.73
2018-09-19T06:45:54.626Z,101501.42
2018-09-19T06:48:23.159Z,101497.39
2018-09-19T06:50:51.666Z,101494.45
2018-09-19T06:53:21.287Z,101493.27
2018-09-19T06:55:49.796Z,101496.27
2018-09-19T06:58:18.276Z,101491.46
2018-09-19T07:00:46.769Z,101491.23
2018-09-19T07:03:15.326Z,101482.89
2018-09-19T07:05:43.945Z,101477.76
2018-09-19T07:08:12.412Z,101470.25
2018-09-19T07:10:40.944Z,101474.95
2018-09-19T07:13:09.529Z,101481.86
2018-09-19T07:15:38.408Z,101477.89
2018-09-19T07:18:07.020Z,101483.95
2018-09-19T07:20:35.536Z,101485.13
2018-09-19T07:23:04.068Z,101479.27
2018-09-19T07:25:32.717Z,101475.02
2018-09-19T07:28:01.236Z,101484.89
2018-09-19T07:30:29.740Z,101489.81
2018-09-19T07:32:58.285Z,101479.31
2018-09-19T07:35:26.822Z,101481.52
2018-09-19T07:37:55.346Z,101484.27
2018-09-19T07:40:23.930Z,101479.99
2018-09-19T07:42:52.383Z,101481.66
2018-09-19T07:45:21.064Z,101488.51
2018-09-19T07:47:49.658Z,101489.14
2018-09-19T07:50:18.266Z,101493.25
2018-09-19T07:52:47.124Z,101493.81
2018-09-19T07:55:15.723Z,101493.32
2018-09-19T07:57:44.183Z,101493.67
2018-09-19T08:00:12.690Z,101498.08
2018-09-19T08:02:41.207Z,101500.28
2018-09-19T08:05:09.710Z,101495.95
2018-09-19T08:07:38.224Z,101503.63
2018-09-19T08:10:07.925Z,101502.03
2018-09-19T08:12:36.814Z,101509.11
2018-09-19T08:15:05.396Z,101507.77
2018-09-19T08:17:34.157Z,101506.69
2018-09-19T08:20:02.728Z,101510.23
2018-09-19T08:22:31.310Z,101508.67
2018-09-19T08:24:59.878Z,101509.20
2018-09-19T08:27:28.374Z,101508.12
2018-09-19T08:29:56.901Z,101510.00
2018-09-19T08:32:25.419Z,101525.56
2018-09-19T08:34:53.971Z,101516.02
2018-09-19T08:37:22.496Z,101510.83
2018-09-19T08:39:51.120Z,101516.52
2018-09-19T08:42:19.634Z,101512.97
2018-09-19T08:44:48.165Z,101512.95
2018-09-19T08:47:16.692Z,101512.13
2018-09-19T08:49:45.181Z,101508.84
2018-09-19T08:52:13.729Z,101507.19
2018-09-19T08:54:42.228Z,101505.25
2018-09-19T08:57:10.763Z,101496.20
2018-09-19T08:59:39.276Z,101499.97
2018-09-19T09:02:07.889Z,101501.56
2018-09-19T09:04:36.383Z,101500.75
2018-09-19T09:07:05.036Z,101499.62
2018-09-19T09:09:33.513Z,101494.14
2018-09-19T09:12:02.123Z,101494.63
2018-09-19T09:14:30.639Z,101498.36
2018-09-19T09:16:59.144Z,101493.12
2018-09-19T09:19:27.691Z,101490.59
2018-09-19T09:21:56.223Z,101500.66
2018-09-19T09:24:24.782Z,101501.11
2018-09-19T09:26:53.726Z,101505.33
2018-09-19T09:29:22.205Z,101506.14
2018-09-19T09:31:50.715Z,101510.49
2018-09-19T09:34:19.323Z,101523.79
2018-09-19T09:36:47.858Z,101511.98
2018-09-19T09:39:16.433Z,101517.07
2018-09-19T09:41:44.978Z,101502.77
2018-09-19T09:44:13.517Z,101498.02
2018-09-19T09:46:42.101Z,101492.75
2018-09-19T09:49:10.590Z,101491.34
2018-09-19T09:51:39.120Z,101487.15
2018-09-19T09:54:08.002Z,101478.81
2018-09-19T09:56:36.699Z,101466.19
2018-09-19T09:59:05.221Z,101466.75
2018-09-19T10:01:33.779Z,101467.48
2018-09-19T10:04:02.332Z,101461.09
2018-09-19T10:06:30.877Z,101474.08
2018-09-19T10:08:59.399Z,101467.34
2018-09-19T10:11:27.992Z,101455.00
2018-09-19T10:13:56.659Z,101462.83
2018-09-19T10:16:25.165Z,101460.59
2018-09-19T10:18:53.730Z,101457.96
2018-09-19T10:21:22.359Z,101460.76
2018-09-19T10:23:50.892Z,101463.32
2018-09-19T10:26:19.405Z,101466.69
2018-09-19T10:28:48.313Z,101457.54
2018-09-19T10:31:16.857Z,101456.11
2018-09-19T10:33:45.395Z,101450.73
2018-09-19T10:36:13.900Z,101451.64
2018-09-19T10:38:42.460Z,101433.89
2018-09-19T10:41:10.955Z,101433.58
2018-09-19T10:43:39.495Z,101419.06
2018-09-19T10:46:08.102Z,101419.13
2018-09-19T10:48:36.596Z,101404.42
2018-09-19T10:51:05.084Z,101400.33
2018-09-19T10:53:33.594Z,101389.23
2018-09-19T10:56:02.297Z,101385.34
2018-09-19T10:58:30.889Z,101390.59
2018-09-19T11:00:59.499Z,101392.19
2018-09-19T11:03:28.029Z,101404.50
2018-09-19T11:05:56.543Z,101396.34
2018-09-19T11:08:25.198Z,101401.59
2018-09-19T11:10:53.692Z,101395.48
2018-09-19T11:13:22.828Z,101398.84
2018-09-19T11:15:51.339Z,101402.97
2018-09-19T11:18:19.848Z,101397.45
2018-09-19T11:20:48.351Z,101404.34
2018-09-19T11:23:16.911Z,101392.14
2018-09-19T11:25:45.384Z,101389.44
2018-09-19T11:28:13.872Z,101385.25
2018-09-19T11:30:42.408Z,101372.31
2018-09-19T11:33:10.883Z,101384.56
2018-09-19T11:35:39.388Z,101372.17
2018-09-19T11:38:07.896Z,101376.08
2018-09-19T11:40:36.469Z,101375.28
2018-09-19T11:43:04.974Z,101375.72
2018-09-19T11:45:33.483Z,101368.53
2018-09-19T11:48:02.072Z,101363.50
2018-09-19T11:50:30.597Z,101363.22
2018-09-19T11:52:59.105Z,101353.36
2018-09-19T11:55:27.716Z,101358.65
2018-09-19T11:57:56.251Z,101347.05
2018-09-19T12:00:24.791Z,101341.63
2018-09-19T12:02:53.354Z,101342.43
2018-09-19T12:05:21.914Z,101338.53
2018-09-19T12:07:50.453Z,101338.53
2018-09-19T12:10:18.956Z,101337.74
2018-09-19T12:12:47.503Z,101321.73
2018-09-19T12:15:16.010Z,101319.02
2018-09-19T12:17:44.495Z,101330.55
2018-09-19T12:20:13.014Z,101319.56
2018-09-19T12:22:41.507Z,101316.80
2018-09-19T12:25:10.058Z,101308.83
2018-09-19T12:27:38.556Z,101307.44
2018-09-19T12:30:07.127Z,101302.02
2018-09-19T12:32:35.615Z,101305.80
2018-09-19T12:35:04.206Z,101299.79
2018-09-19T12:37:32.715Z,101302.09
2018-09-19T12:40:01.277Z,101301.02
2018-09-19T12:42:29.837Z,101301.45
2018-09-19T12:44:58.357Z,101296.14
2018-09-19T12:47:26.863Z,101295.73
2018-09-19T12:49:55.368Z,101285.28
2018-09-19T12:52:25.315Z,101296.82
2018-09-19T12:54:53.848Z,101293.91
2018-09-19T12:57:22.804Z,101283.10
2018-09-19T12:59:51.323Z,101287.85
2018-09-19T13:02:19.821Z,101290.80
2018-09-19T13:04:48.700Z,101294.01
2018-09-19T13:07:17.180Z,101289.21
2018-09-19T13:09:45.660Z,101283.15
2018-09-19T13:12:14.628Z,101288.00
2018-09-19T13:14:43.384Z,101293.05
2018-09-19T13:17:12.194Z,101283.34
2018-09-19T13:19:41.261Z,101293.00
2018-09-19T13:22:09.746Z,101286.49
2018-09-19T13:24:38.229Z,101283.34
2018-09-19T13:27:06.792Z,101281.23
2018-09-19T13:29:36.444Z,101282.10
2018-09-19T13:32:04.949Z,101276.09
2018-09-19T13:34:33.413Z,101279.30
2018-09-19T13:37:01.988Z,101276.16
2018-09-19T13:39:30.496Z,101274.85
2018-09-19T13:41:59.571Z,101262.47
2018-09-19T13:44:28.079Z,101271.34
2018-09-19T13:46:57.014Z,101270.72
2018-09-19T13:49:30.736Z,101271.08
2018-09-19T13:51:59.365Z,101267.72
2018-09-19T13:54:27.827Z,101255.28
2018-09-19T13:56:56.495Z,101258.09
2018-09-19T13:59:26.357Z,101256.64
2018-09-19T14:01:54.921Z,101253.73
2018-09-19T14:04:23.476Z,101254.72
2018-09-19T14:06:51.955Z,101247.30
2018-09-19T14:09:20.514Z,101244.02
2018-09-19T14:11:49.594Z,101232.63
2018-09-19T14:14:19.306Z,101238.26
2018-09-19T14:16:48.677Z,101236.44
2018-09-19T14:19:17.259Z,101233.92
2018-09-19T14:21:45.776Z,101237.82
2018-09-19T14:24:14.240Z,101239.01
2018-09-19T14:26:42.737Z,101238.20
2018-09-19T14:29:11.394Z,101242.11
2018-09-19T14:31:39.894Z,101237.43
2018-09-19T14:34:09.419Z,101239.05
2018-09-19T14:36:38.020Z,101248.33
2018-09-19T14:39:07.516Z,101239.01
2018-09-19T14:41:36.017Z,101227.21
2018-09-19T14:44:04.616Z,101234.06
2018-09-19T14:46:33.113Z,101231.44
2018-09-19T14:49:02.199Z,101228.36
2018-09-19T14:51:30.684Z,101221.16
2018-09-19T14:53:59.503Z,101211.61
2018-09-19T14:56:28.098Z,101216.94
2018-09-19T14:58:56.729Z,101216.48
2018-09-19T15:13:21.524Z,101190.98
2018-09-19T15:15:50.116Z,101193.50
2018-09-19T15:18:19.765Z,101193.50
2018-09-19T15:20:48.353Z,101195.33
2018-09-19T15:23:16.985Z,101183.34
2018-09-19T15:25:45.600Z,101195.67
2018-09-19T15:28:14.423Z,101182.89
2018-09-19T15:30:43.289Z,101185.84
2018-09-19T15:33:11.818Z,101186.27
2018-09-19T15:35:40.354Z,101192.42
2018-09-19T15:38:08.899Z,101194.72
2018-09-19T15:40:37.378Z,101191.97
2018-09-19T15:43:06.465Z,101191.14
2018-09-19T15:45:38.322Z,101192.86
2018-09-19T15:48:07.093Z,101196.99
2018-09-19T15:50:35.682Z,101201.13
2018-09-19T15:53:04.189Z,101202.70
2018-09-19T15:55:33.732Z,101201.73
2018-09-19T15:58:02.203Z,101203.55
2018-09-19T16:00:30.721Z,101203.63
2018-09-19T16:02:59.417Z,101205.34
2018-09-19T16:05:28.040Z,101207.37
2018-09-19T16:07:56.539Z,101206.99
2018-09-19T16:10:26.138Z,101206.34
2018-09-19T16:12:54.640Z,101206.21
2018-09-19T16:15:23.142Z,101212.09
2018-09-19T16:17:51.749Z,101212.42
2018-09-19T16:20:21.547Z,101208.70
2018-09-19T16:22:50.023Z,101213.51
2018-09-19T16:25:18.635Z,101214.80
2018-09-19T16:27:47.134Z,101215.55
2018-09-19T16:30:16.902Z,101217.73
2018-09-19T16:32:45.489Z,101221.81
2018-09-19T16:35:14.048Z,101226.25
2018-09-19T16:37:42.994Z,101225.78
2018-09-19T16:40:12.729Z,101228.70
2018-09-19T16:42:42.460Z,101232.09
2018-09-19T16:45:12.977Z,101233.16
2018-09-19T16:47:41.711Z,101242.63
2018-09-19T16:50:10.213Z,101241.91
2018-09-19T16:52:38.817Z,101243.52
2018-09-19T16:55:07.429Z,101238.20
2018-09-19T16:57:35.938Z,101236.66
2018-09-19T17:00:04.873Z,101235.84
2018-09-19T17:02:33.393Z,101235.04
2018-09-19T17:05:02.891Z,101241.09
2018-09-19T17:07:32.272Z,101239.72
2018-09-19T17:10:01.585Z,101244.09
2018-09-19T17:12:31.333Z,101245.22
2018-09-19T17:15:00.052Z,101248.95
2018-09-19T17:17:29.636Z,101249.72
2018-09-19T17:19:58.129Z,101248.75
2018-09-19T17:22:27.730Z,101255.84
2018-09-19T17:24:56.332Z,101252.11
2018-09-19T17:27:24.794Z,101260.11
2018-09-19T17:29:54.302Z,101262.02
2018-09-19T17:32:22.961Z,101267.58
2018-09-19T17:34:51.523Z,101276.83
2018-09-19T17:37:20.092Z,101270.98
2018-09-19T17:39:49.737Z,101270.86
2018-09-19T17:42:18.226Z,101278.50
2018-09-19T17:44:46.919Z,101275.36
2018-09-19T17:47:15.631Z,101282.11
2018-09-19T17:49:45.239Z,101286.73
2018-09-19T17:52:15.751Z,101287.97
2018-09-19T17:54:44.330Z,101287.58
2018-09-19T17:57:13.888Z,101288.88
2018-09-19T17:59:43.472Z,101292.16
2018-09-19T18:02:12.257Z,101301.41
2018-09-19T18:04:40.817Z,101300.20
2018-09-19T18:07:09.549Z,101300.05
2018-09-19T18:09:39.112Z,101301.33
2018-09-19T18:12:08.052Z,101302.31
2018-09-19T18:14:36.553Z,101300.02
2018-09-19T18:17:05.249Z,101300.14
2018-09-19T18:19:33.880Z,101299.95
2018-09-19T18:22:02.388Z,101307.02
2018-09-19T18:24:30.869Z,101310.00
2018-09-19T18:26:59.750Z,101310.76
2018-09-19T18:29:29.328Z,101319.57
2018-09-19T18:31:57.792Z,101320.54
2018-09-19T18:34:27.301Z,101322.58
2018-09-19T18:36:55.768Z,101326.20
2018-09-19T18:39:24.245Z,101328.06
2018-09-19T18:41:53.757Z,101337.92
2018-09-19T18:44:23.316Z,101332.03
2018-09-19T18:46:51.816Z,101340.34
2018-09-19T18:49:20.356Z,101337.34
2018-09-19T18:51:48.892Z,101342.95
2018-09-19T18:54:22.281Z,101342.54
2018-09-19T18:56:51.610Z,101341.06
2018-09-19T18:59:20.315Z,101341.72
2018-09-19T19:01:50.242Z,101341.89
2018-09-19T19:04:18.655Z,101343.91
2018-09-19T19:06:47.128Z,101345.19
2018-09-19T19:09:15.620Z,101344.62
2018-09-19T19:11:44.101Z,101352.09
2018-09-19T19:14:12.636Z,101346.16
2018-09-19T19:16:41.089Z,101354.77
2018-09-19T19:19:09.628Z,101354.80
2018-09-19T19:21:38.128Z,101360.54
2018-09-19T19:24:06.661Z,101361.50
2018-09-19T19:26:35.204Z,101362.85
2018-09-19T19:29:03.705Z,101358.37
2018-09-19T19:31:32.172Z,101370.22
2018-09-19T19:34:00.683Z,101377.93
2018-09-19T19:36:29.214Z,101375.28
2018-09-19T19:38:57.668Z,101373.80
2018-09-19T19:41:26.140Z,101373.14
2018-09-19T19:43:54.653Z,101384.16
2018-09-19T19:46:23.141Z,101397.88
2018-09-19T19:48:51.633Z,101403.41
2018-09-19T19:51:20.173Z,101392.56
2018-09-19T19:53:48.644Z,101393.67
2018-09-19T19:56:17.332Z,101404.09
2018-09-19T19:58:45.941Z,101404.69
2018-09-19T20:01:14.677Z,101404.16
2018-09-19T20:03:43.188Z,101408.28
2018-09-19T20:06:11.671Z,101403.94
2018-09-19T20:08:40.141Z,101414.08
2018-09-19T20:11:08.600Z,101414.67
2018-09-19T20:13:37.093Z,101419.84
2018-09-19T20:16:05.660Z,101413.83
2018-09-19T20:18:34.232Z,101415.20
2018-09-19T20:21:03.152Z,101413.64
2018-09-19T20:23:31.600Z,101412.55
2018-09-19T20:26:00.074Z,101407.38
2018-09-19T20:28:28.597Z,101406.31
2018-09-19T20:30:57.098Z,101407.41
2018-09-19T20:33:25.598Z,101412.35
2018-09-19T20:35:54.061Z,101415.09
2018-09-19T20:38:22.532Z,101409.09
2018-09-19T20:40:51.002Z,101413.45
2018-09-19T20:43:19.674Z,101419.20
2018-09-19T20:45:48.140Z,101426.30
2018-09-19T20:48:16.671Z,101427.67
2018-09-19T20:50:45.436Z,101424.67
2018-09-19T20:53:13.996Z,101428.73
2018-09-19T20:55:42.492Z,101430.37
2018-09-19T20:58:11.209Z,101423.55
2018-09-19T21:00:39.723Z,101426.28
2018-09-19T21:03:08.212Z,101428.20
2018-09-19T21:05:36.812Z,101428.73
2018-09-19T21:08:05.284Z,101438.00
2018-09-19T21:10:33.781Z,101434.16
2018-09-19T21:13:02.291Z,101420.28
2018-09-19T21:15:31.047Z,101428.73
2018-09-19T21:17:59.517Z,101433.61
2018-09-19T21:20:29.013Z,101434.42
2018-09-19T21:22:57.510Z,101433.87
2018-09-19T21:25:26.127Z,101436.31
2018-09-19T21:27:54.665Z,101434.67
2018-09-19T21:30:24.172Z,101434.13
2018-09-19T21:32:52.660Z,101427.35
2018-09-19T21:35:21.192Z,101430.08
2018-09-19T21:37:49.712Z,101433.06
2018-09-19T21:40:18.200Z,101438.78
2018-09-19T21:42:46.840Z,101446.42
2018-09-19T21:45:15.357Z,101444.53
2018-09-19T21:47:43.809Z,101445.34
2018-09-19T21:50:12.339Z,101449.45
2018-09-19T21:52:40.808Z,101442.92
2018-09-19T21:55:09.277Z,101447.28
2018-09-19T21:57:37.781Z,101449.73
2018-09-19T22:00:07.161Z,101445.64
2018-09-19T22:02:35.628Z,101445.36
2018-09-19T22:05:04.284Z,101451.41
2018-09-19T22:07:32.808Z,101446.48
2018-09-19T22:10:01.261Z,101453.85
2018-09-19T22:12:29.741Z,101453.02
2018-09-19T22:14:58.213Z,101447.56
2018-09-19T22:17:26.680Z,101445.67
2018-09-19T22:19:55.384Z,101446.77
2018-09-19T22:22:25.893Z,101447.84
2018-09-19T22:24:54.365Z,101448.68
2018-09-19T22:27:22.902Z,101452.73
2018-09-19T22:29:51.337Z,101459.83
2018-09-19T22:32:19.844Z,101455.46
2018-09-19T22:34:48.334Z,101458.19
2018-09-19T22:37:16.829Z,101466.92
2018-09-19T22:39:46.316Z,101462.55
2018-09-19T22:42:14.783Z,101458.45
2018-09-19T22:44:43.308Z,101457.64
2018-09-19T22:47:11.799Z,101456.53
2018-09-19T22:49:40.256Z,101456.81
2018-09-19T22:52:08.741Z,101463.64
2018-09-19T22:54:37.205Z,101461.19
2018-09-19T22:57:05.778Z,101457.09
2018-09-19T22:59:34.232Z,101455.45
2018-09-19T23:02:03.027Z,101455.46
2018-09-19T23:04:31.491Z,101453.02
2018-09-19T23:06:59.981Z,101448.39
2018-09-19T23:09:30.559Z,101448.92
2018-09-19T23:11:59.020Z,101443.20
2018-09-19T23:14:27.488Z,101445.67
2018-09-19T23:16:57.129Z,101444.03
2018-09-19T23:19:25.969Z,101438.55
2018-09-19T23:21:54.491Z,101440.17
2018-09-19T23:24:22.972Z,101439.34
2018-09-19T23:26:51.428Z,101435.53
2018-09-19T23:29:20.956Z,101431.14
2018-09-19T23:31:49.474Z,101428.72
2018-09-19T23:34:18.044Z,101438.48
2018-09-19T23:36:46.520Z,101433.28
2018-09-19T23:39:14.991Z,101433.21
2018-09-19T23:41:44.511Z,101432.56
2018-09-19T23:44:12.967Z,101423.84
2018-09-19T23:46:41.723Z,101430.07
2018-09-19T23:49:10.189Z,101430.88
2018-09-19T23:51:38.712Z,101424.27
2018-09-19T23:54:07.472Z,101425.33
2018-09-19T23:56:35.949Z,101422.59
2018-09-19T23:59:04.431Z,101427.41
